Trout, West Virginia
Current Conditions -  °F | °C
As of 11:35 AM on Saturday 22 Nov 2014 (Local Time) from KLWB Reporting Station
Clear Clear  
Wind Chill: 41°   Ceiling: Unl
Heat Index: 41°   Visibility: 10mi
Dew Point: 13°   Wind: 0mph
Humidity: 32%   Direction: NA
Pressure: 30.38"   Gusts: NA
Location:  37.9493°N, 80.5132°W
Report Text: KLWB 221635Z AUTO 00000KT 10SM CLR 05/M10 A3038 RMK AO2 T00511103
Loading
Personal Weather Stations






























Interactive Weather Map New forecast layout! Learn more

10-Day Weather Forecast

Advertisements
Track Severe Weather on mobile